createdAt,value
2019-03-11T00:00:40.077Z,4.75
2019-03-11T00:03:09.635Z,4.68
2019-03-11T00:05:39.229Z,4.87
2019-03-11T00:08:08.805Z,4.94
2019-03-11T00:10:38.353Z,4.87
2019-03-11T00:13:07.917Z,5.02
2019-03-11T00:15:37.419Z,5.06
2019-03-11T00:18:06.988Z,5.14
2019-03-11T00:20:36.458Z,4.96
2019-03-11T00:23:06.062Z,5.25
2019-03-11T00:25:35.574Z,5.49
2019-03-11T00:28:05.132Z,5.41
2019-03-11T00:30:34.721Z,5.25
2019-03-11T00:33:04.211Z,4.86
2019-03-11T00:35:33.720Z,4.69
2019-03-11T00:38:03.232Z,4.51
2019-03-11T00:40:32.724Z,4.44
2019-03-11T00:43:02.263Z,4.45
2019-03-11T00:45:31.754Z,4.42
2019-03-11T00:48:02.503Z,4.36
2019-03-11T00:50:32.277Z,4.37
2019-03-11T00:53:01.885Z,4.29
2019-03-11T00:55:31.372Z,4.11
2019-03-11T00:58:00.956Z,3.93
2019-03-11T01:00:34.015Z,3.68
2019-03-11T01:03:03.496Z,3.49
2019-03-11T01:05:33.070Z,3.43
2019-03-11T01:08:02.690Z,3.37
2019-03-11T01:10:32.165Z,3.34
2019-03-11T01:13:01.679Z,3.36
2019-03-11T01:15:31.241Z,3.29
2019-03-11T01:18:00.766Z,3.35
2019-03-11T01:20:30.240Z,3.44
2019-03-11T01:22:59.740Z,3.38
2019-03-11T01:25:29.248Z,3.52
2019-03-11T01:27:58.803Z,3.51
2019-03-11T01:30:28.292Z,3.60
2019-03-11T01:32:57.812Z,3.54
2019-03-11T01:35:27.281Z,3.45
2019-03-11T01:37:56.884Z,3.50
2019-03-11T01:40:26.374Z,3.44
2019-03-11T01:42:55.846Z,3.34
2019-03-11T01:45:25.376Z,3.43
2019-03-11T01:47:54.929Z,3.50
2019-03-11T01:50:24.470Z,3.58
2019-03-11T01:52:53.956Z,3.61
2019-03-11T01:55:23.419Z,3.71
2019-03-11T01:57:52.961Z,3.70
2019-03-11T02:00:22.680Z,3.75
2019-03-11T02:02:52.162Z,4.01
2019-03-11T02:05:21.665Z,4.07
2019-03-11T02:07:51.239Z,3.96
2019-03-11T02:10:21.295Z,4.07
2019-03-11T02:12:50.773Z,4.02
2019-03-11T02:15:20.914Z,4.00
2019-03-11T02:17:50.444Z,4.05
2019-03-11T02:20:20.232Z,4.12
2019-03-11T02:22:49.784Z,4.17
2019-03-11T02:25:19.358Z,4.12
2019-03-11T02:27:49.314Z,4.27
2019-03-11T02:30:19.193Z,4.16
2019-03-11T02:32:48.728Z,4.29
2019-03-11T02:35:28.509Z,4.30
2019-03-11T02:37:58.437Z,4.35
2019-03-11T02:40:28.662Z,4.36
2019-03-11T02:42:58.233Z,4.38
2019-03-11T02:45:27.700Z,4.31
2019-03-11T02:47:57.203Z,4.11
2019-03-11T02:50:26.747Z,4.33
2019-03-11T02:52:56.235Z,4.43
2019-03-11T02:55:25.725Z,4.52
2019-03-11T02:57:55.209Z,4.47
2019-03-11T03:00:24.790Z,4.43
2019-03-11T03:03:11.331Z,4.60
2019-03-11T03:05:42.475Z,4.59
2019-03-11T03:08:11.991Z,4.58
2019-03-11T03:10:41.583Z,4.58
2019-03-11T03:13:11.125Z,4.47
2019-03-11T03:15:40.710Z,4.42
2019-03-11T03:18:10.246Z,4.43
2019-03-11T03:20:39.749Z,4.35
2019-03-11T03:23:09.236Z,4.50
2019-03-11T03:25:38.734Z,4.35
2019-03-11T03:28:08.362Z,4.38
2019-03-11T03:30:38.024Z,4.42
2019-03-11T03:33:07.601Z,4.31
2019-03-11T03:35:37.070Z,4.38
2019-03-11T03:38:06.705Z,4.53
2019-03-11T03:40:36.211Z,4.56
2019-03-11T03:43:06.065Z,4.27
2019-03-11T03:45:41.891Z,4.34
2019-03-11T03:48:11.355Z,4.31
2019-03-11T03:50:41.435Z,4.28
2019-03-11T03:53:11.063Z,4.21
2019-03-11T03:55:40.541Z,4.12
2019-03-11T03:58:10.062Z,4.04
2019-03-11T04:00:39.581Z,4.11
2019-03-11T04:03:09.151Z,4.10
2019-03-11T04:05:38.640Z,4.20
2019-03-11T04:08:08.196Z,4.23
2019-03-11T04:10:37.686Z,4.07
2019-03-11T04:13:07.186Z,3.99
2019-03-11T04:15:36.753Z,3.88
2019-03-11T04:18:09.705Z,4.09
2019-03-11T04:20:39.335Z,4.08
2019-03-11T04:23:08.973Z,4.11
2019-03-11T04:25:38.524Z,3.98
2019-03-11T04:28:08.297Z,3.98
2019-03-11T04:30:37.862Z,3.76
2019-03-11T04:33:07.418Z,3.83
2019-03-11T04:35:37.078Z,3.79
2019-03-11T04:38:06.575Z,3.78
2019-03-11T04:40:36.082Z,4.02
2019-03-11T04:43:05.654Z,4.07
2019-03-11T04:45:35.165Z,4.26
2019-03-11T04:48:04.746Z,4.35
2019-03-11T04:50:34.304Z,4.33
2019-03-11T04:53:03.790Z,4.33
2019-03-11T04:55:33.356Z,4.49
2019-03-11T04:58:02.843Z,4.48
2019-03-11T05:00:34.685Z,4.22
2019-03-11T05:03:04.315Z,4.13
2019-03-11T05:05:33.816Z,3.99
2019-03-11T05:08:03.321Z,3.87
2019-03-11T05:10:32.869Z,3.80
2019-03-11T05:13:02.357Z,3.68
2019-03-11T05:15:31.878Z,3.60
2019-03-11T05:18:01.455Z,3.59
2019-03-11T05:20:30.946Z,3.54
2019-03-11T05:23:00.428Z,3.49
2019-03-11T05:25:29.933Z,3.38
2019-03-11T05:27:59.442Z,3.50
2019-03-11T05:30:28.939Z,3.58
2019-03-11T05:32:58.413Z,3.65
2019-03-11T05:35:27.937Z,3.63
2019-03-11T05:37:57.421Z,3.54
2019-03-11T05:40:26.980Z,3.71
2019-03-11T05:42:56.465Z,3.67
2019-03-11T05:45:26.037Z,3.70
2019-03-11T05:47:55.526Z,3.82
2019-03-11T05:50:25.157Z,3.94
2019-03-11T05:52:54.652Z,3.55
2019-03-11T05:55:24.153Z,3.34
2019-03-11T05:57:53.634Z,3.21
2019-03-11T06:00:30.819Z,3.21
2019-03-11T06:03:00.304Z,3.15
2019-03-11T06:05:29.854Z,3.12
2019-03-11T06:07:59.359Z,3.10
2019-03-11T06:10:28.847Z,3.24
2019-03-11T06:12:59.982Z,3.07
2019-03-11T06:15:29.492Z,3.02
2019-03-11T06:17:58.982Z,3.06
2019-03-11T06:20:39.072Z,3.06
2019-03-11T06:23:15.442Z,3.06
2019-03-11T06:25:44.961Z,3.11
2019-03-11T06:28:14.434Z,3.10
2019-03-11T06:30:43.992Z,2.99
2019-03-11T06:33:13.590Z,3.03
2019-03-11T06:35:43.078Z,2.90
2019-03-11T06:38:12.579Z,2.80
2019-03-11T06:40:42.090Z,2.77
2019-03-11T06:43:11.568Z,2.97
2019-03-11T06:45:41.065Z,2.95
2019-03-11T06:48:10.581Z,2.97
2019-03-11T06:50:40.067Z,3.04
2019-03-11T06:53:09.575Z,2.96
2019-03-11T06:55:39.049Z,3.08
2019-03-11T06:58:08.702Z,3.15
2019-03-11T07:00:38.207Z,3.12
2019-03-11T07:03:07.770Z,2.97
2019-03-11T07:05:37.265Z,3.02
2019-03-11T07:08:06.786Z,2.89
2019-03-11T07:10:36.253Z,2.66
2019-03-11T07:13:05.824Z,2.93
2019-03-11T07:15:35.326Z,3.03
2019-03-11T07:18:04.881Z,3.00
2019-03-11T07:20:34.374Z,3.10
2019-03-11T07:23:03.931Z,3.30
2019-03-11T07:25:33.438Z,3.17
2019-03-11T07:28:02.990Z,3.45
2019-03-11T07:30:32.489Z,3.59
2019-03-11T07:33:02.041Z,3.76
2019-03-11T07:35:31.523Z,4.02
2019-03-11T07:38:01.049Z,4.03
2019-03-11T07:40:30.672Z,4.16
2019-03-11T07:43:00.226Z,4.29
2019-03-11T07:45:29.702Z,4.23
2019-03-11T07:47:59.242Z,4.19
2019-03-11T07:50:28.770Z,4.43
2019-03-11T07:52:58.289Z,4.53
2019-03-11T07:55:27.770Z,4.29
2019-03-11T07:57:57.237Z,3.91
2019-03-11T08:00:26.886Z,4.17
2019-03-11T08:02:56.370Z,4.25
2019-03-11T08:05:25.848Z,4.36
2019-03-11T08:07:55.408Z,4.25
2019-03-11T08:10:26.225Z,4.07
2019-03-11T08:12:55.726Z,3.86
2019-03-11T08:15:25.293Z,3.94
2019-03-11T08:17:54.772Z,3.94
2019-03-11T08:20:24.289Z,4.07
2019-03-11T08:22:53.952Z,3.97
2019-03-11T08:25:23.439Z,4.11
2019-03-11T08:27:53.000Z,4.37
2019-03-11T08:30:23.505Z,4.24
2019-03-11T08:32:53.121Z,4.54
2019-03-11T08:35:22.668Z,4.28
2019-03-11T08:37:52.148Z,4.37
2019-03-11T08:40:22.385Z,4.29
2019-03-11T08:42:51.869Z,4.34
2019-03-11T08:45:21.502Z,4.63
2019-03-11T08:47:50.981Z,4.66
2019-03-11T08:50:20.539Z,4.87
2019-03-11T08:52:50.048Z,4.99
2019-03-11T08:55:19.625Z,4.65
2019-03-11T08:57:49.186Z,4.91
2019-03-11T09:00:21.228Z,4.71
2019-03-11T09:02:50.820Z,4.65
2019-03-11T09:05:20.508Z,4.53
2019-03-11T09:07:49.991Z,4.44
2019-03-11T09:10:20.611Z,4.23
2019-03-11T09:12:50.185Z,4.50
2019-03-11T09:15:21.192Z,4.38
2019-03-11T09:17:51.102Z,4.40
2019-03-11T09:20:20.843Z,4.18
2019-03-11T09:22:50.345Z,4.08
2019-03-11T09:25:28.708Z,4.18
2019-03-11T09:27:59.941Z,4.23
2019-03-11T09:30:29.482Z,4.43
2019-03-11T09:32:58.965Z,4.64
2019-03-11T09:35:28.475Z,4.84
2019-03-11T09:37:57.972Z,4.82
2019-03-11T09:40:27.464Z,4.71
2019-03-11T09:42:56.974Z,4.60
2019-03-11T09:45:26.524Z,4.58
2019-03-11T09:47:56.061Z,4.72
2019-03-11T09:50:25.606Z,4.65
2019-03-11T09:52:55.362Z,4.74
2019-03-11T09:55:30.655Z,4.85
2019-03-11T09:58:00.166Z,4.93
2019-03-11T10:00:34.857Z,4.91
2019-03-11T10:03:04.616Z,4.94
2019-03-11T10:05:34.160Z,5.54
2019-03-11T10:08:03.820Z,5.67
2019-03-11T10:10:33.466Z,5.66
2019-03-11T10:13:03.040Z,5.68
2019-03-11T10:15:32.731Z,5.39
2019-03-11T10:18:02.313Z,5.26
2019-03-11T10:20:31.805Z,5.35
2019-03-11T10:23:01.305Z,5.35
2019-03-11T10:25:30.779Z,5.02
2019-03-11T10:28:00.263Z,4.82
2019-03-11T10:30:29.783Z,4.54
2019-03-11T10:32:59.358Z,4.41
2019-03-11T10:35:32.923Z,4.27
2019-03-11T10:38:00.143Z,4.22
2019-03-11T10:40:32.325Z,4.01
2019-03-11T10:43:01.828Z,3.99
2019-03-11T10:45:32.337Z,3.59
2019-03-11T10:48:02.009Z,3.35
2019-03-11T10:50:31.488Z,2.77
2019-03-11T10:53:01.049Z,2.58
2019-03-11T10:55:30.618Z,2.63
2019-03-11T10:58:00.192Z,2.74
2019-03-11T11:00:34.072Z,3.29
2019-03-11T11:03:03.713Z,3.62
2019-03-11T11:05:33.287Z,4.17
2019-03-11T11:08:02.849Z,4.96
2019-03-11T11:10:32.416Z,5.86
2019-03-11T11:13:01.916Z,5.43
2019-03-11T11:15:33.541Z,5.48
2019-03-11T11:18:03.103Z,5.24
2019-03-11T11:20:32.702Z,5.17
2019-03-11T11:23:02.297Z,5.44
2019-03-11T11:25:32.379Z,5.48
2019-03-11T11:28:01.996Z,5.70
2019-03-11T11:30:32.635Z,5.69
2019-03-11T11:33:02.210Z,5.91
2019-03-11T11:35:31.755Z,6.43
2019-03-11T11:38:01.338Z,7.63
2019-03-11T11:40:31.954Z,8.32
2019-03-11T11:43:02.337Z,9.26
2019-03-11T11:45:33.350Z,9.36
2019-03-11T11:48:02.930Z,9.23
2019-03-11T11:50:32.480Z,9.13
2019-03-11T11:53:02.098Z,9.10
2019-03-11T11:55:31.618Z,8.77
2019-03-11T11:58:01.104Z,8.54
2019-03-11T12:00:34.341Z,7.85
2019-03-11T12:03:04.019Z,8.21
2019-03-11T12:05:33.548Z,8.47
2019-03-11T12:08:03.145Z,8.58
2019-03-11T12:10:34.055Z,9.53
2019-03-11T12:13:03.634Z,10.52
2019-03-11T12:15:33.180Z,10.68
2019-03-11T12:18:02.709Z,10.59
2019-03-11T12:20:32.818Z,10.05
2019-03-11T12:23:02.395Z,9.26
2019-03-11T12:25:31.888Z,9.21
2019-03-11T12:28:01.740Z,9.72
2019-03-11T12:30:32.870Z,9.41
2019-03-11T12:33:02.624Z,9.14
2019-03-11T12:35:32.106Z,9.13
2019-03-11T12:38:01.739Z,8.83
2019-03-11T12:40:31.377Z,8.19
2019-03-11T12:43:00.884Z,8.39
2019-03-11T12:45:30.379Z,8.19
2019-03-11T12:47:59.905Z,7.78
2019-03-11T12:50:33.051Z,7.61
2019-03-11T12:53:02.669Z,7.64
2019-03-11T12:55:32.145Z,8.78
2019-03-11T12:58:01.639Z,9.29
2019-03-11T13:00:31.199Z,10.23
2019-03-11T13:03:00.697Z,9.59
2019-03-11T13:05:30.269Z,9.66
2019-03-11T13:07:59.792Z,9.32
2019-03-11T13:10:31.885Z,8.88
2019-03-11T13:13:01.543Z,8.67
2019-03-11T13:15:31.044Z,8.85
2019-03-11T13:18:33.063Z,8.88
2019-03-11T13:21:19.134Z,9.24
2019-03-11T13:23:48.739Z,9.13
2019-03-11T13:26:18.270Z,9.34
2019-03-11T13:28:47.856Z,9.12
2019-03-11T13:31:17.377Z,8.93
2019-03-11T13:33:46.882Z,8.98
2019-03-11T13:36:16.499Z,9.10
2019-03-11T13:38:46.017Z,9.16
2019-03-11T13:41:15.526Z,9.23
2019-03-11T13:43:45.030Z,9.79
2019-03-11T13:46:14.577Z,9.93
2019-03-11T13:48:44.161Z,9.42
2019-03-11T13:51:13.724Z,9.67
2019-03-11T13:53:43.283Z,10.22
2019-03-11T13:56:12.937Z,10.48
2019-03-11T13:58:42.423Z,10.44
2019-03-11T14:01:11.965Z,10.26
2019-03-11T14:03:41.482Z,9.73
2019-03-11T14:06:11.012Z,9.66
2019-03-11T14:08:40.484Z,10.15
2019-03-11T14:11:10.033Z,10.25
2019-03-11T14:13:39.548Z,9.72
2019-03-11T14:16:09.109Z,9.50
2019-03-11T14:18:38.616Z,9.38
2019-03-11T14:21:08.135Z,9.03
2019-03-11T14:23:37.614Z,8.83
2019-03-11T14:26:07.194Z,8.70
2019-03-11T14:28:36.893Z,8.81
2019-03-11T14:31:06.655Z,8.85
2019-03-11T14:33:36.222Z,9.05
2019-03-11T14:36:05.828Z,8.90
2019-03-11T14:38:35.323Z,8.87
2019-03-11T14:41:05.095Z,8.65
2019-03-11T14:43:34.586Z,8.43
2019-03-11T14:46:04.169Z,8.66
2019-03-11T14:48:33.676Z,9.18
2019-03-11T14:51:03.148Z,9.02
2019-03-11T14:53:32.660Z,9.03
2019-03-11T14:56:02.221Z,8.87
2019-03-11T14:58:31.762Z,8.82
2019-03-11T15:01:01.341Z,9.04
2019-03-11T15:03:30.910Z,9.14
2019-03-11T15:06:00.584Z,9.40
2019-03-11T15:08:30.065Z,9.71
2019-03-11T15:10:59.713Z,9.92
2019-03-11T15:13:29.210Z,9.59
2019-03-11T15:15:58.749Z,9.34
2019-03-11T15:18:28.241Z,9.18
2019-03-11T15:20:57.735Z,9.19
2019-03-11T15:23:27.281Z,9.18
2019-03-11T15:25:56.850Z,9.06
2019-03-11T15:28:26.330Z,9.04
2019-03-11T15:30:56.031Z,9.00
2019-03-11T15:33:25.594Z,8.52
2019-03-11T15:35:55.107Z,8.37
2019-03-11T15:38:25.627Z,8.16
2019-03-11T15:40:55.139Z,8.18
2019-03-11T15:43:24.616Z,8.40
2019-03-11T15:45:54.138Z,8.98
2019-03-11T15:48:23.930Z,9.08
2019-03-11T15:50:53.443Z,9.17
2019-03-11T15:53:22.919Z,8.75
2019-03-11T15:55:52.513Z,8.83
2019-03-11T15:58:22.052Z,8.62
2019-03-11T16:00:51.751Z,8.52
2019-03-11T16:03:21.336Z,8.56
2019-03-11T16:05:50.932Z,8.66
2019-03-11T16:08:20.494Z,8.76
2019-03-11T16:10:50.017Z,8.73
2019-03-11T16:13:19.653Z,8.64
2019-03-11T16:15:49.140Z,8.56
2019-03-11T16:18:18.714Z,8.71
2019-03-11T16:20:48.360Z,8.56
2019-03-11T16:23:17.985Z,8.53
2019-03-11T16:25:47.565Z,8.65
2019-03-11T16:28:17.071Z,8.71
2019-03-11T16:30:46.618Z,8.62
2019-03-11T16:33:16.140Z,8.53
2019-03-11T16:35:48.400Z,8.48
2019-03-11T16:38:17.900Z,8.60
2019-03-11T16:40:47.528Z,8.44
2019-03-11T16:43:17.080Z,8.27
2019-03-11T16:45:46.683Z,8.46
2019-03-11T16:48:16.166Z,8.22
2019-03-11T16:50:45.650Z,8.35
2019-03-11T16:53:15.191Z,8.16
2019-03-11T16:55:46.328Z,8.07
2019-03-11T16:58:16.825Z,8.03
2019-03-11T17:00:48.059Z,7.86
2019-03-11T17:03:17.616Z,7.61
2019-03-11T17:05:47.188Z,7.61
2019-03-11T17:08:16.711Z,7.59
2019-03-11T17:10:46.220Z,7.50
2019-03-11T17:13:15.702Z,7.48
2019-03-11T17:15:45.209Z,7.41
2019-03-11T17:18:14.701Z,7.45
2019-03-11T17:20:44.271Z,7.52
2019-03-11T17:23:14.889Z,7.47
2019-03-11T17:25:44.456Z,7.52
2019-03-11T17:28:13.950Z,7.45
2019-03-11T17:30:43.660Z,7.50
2019-03-11T17:33:13.243Z,7.48
2019-03-11T17:35:42.806Z,7.54
2019-03-11T17:38:12.315Z,7.43
2019-03-11T17:40:41.812Z,7.44
2019-03-11T17:43:11.447Z,7.44
2019-03-11T17:45:40.938Z,7.40
2019-03-11T17:48:10.439Z,7.37
2019-03-11T17:50:40.011Z,7.45
2019-03-11T17:53:19.580Z,7.33
2019-03-11T17:55:40.743Z,7.35
2019-03-11T17:58:10.358Z,7.38
2019-03-11T18:00:55.366Z,7.35
2019-03-11T18:03:18.684Z,7.22
2019-03-11T18:05:48.276Z,7.31
2019-03-11T18:08:19.293Z,7.25
2019-03-11T18:10:48.804Z,7.24
2019-03-11T18:13:18.286Z,7.24
2019-03-11T18:15:47.803Z,7.25
2019-03-11T18:18:17.294Z,7.18
2019-03-11T18:20:46.773Z,7.22
2019-03-11T18:23:16.358Z,7.17
2019-03-11T18:25:45.876Z,7.15
2019-03-11T18:28:15.445Z,7.24
2019-03-11T18:30:45.043Z,7.23
2019-03-11T18:33:14.690Z,7.18
2019-03-11T18:35:44.277Z,7.19
2019-03-11T18:38:13.996Z,7.23
2019-03-11T18:40:43.530Z,7.20
2019-03-11T18:43:20.542Z,7.14
2019-03-11T18:45:44.424Z,7.12
2019-03-11T18:48:13.945Z,7.07
2019-03-11T18:50:43.471Z,6.87
2019-03-11T18:53:13.330Z,7.01
2019-03-11T18:55:42.879Z,7.09
2019-03-11T18:58:12.519Z,7.06
2019-03-11T19:00:42.106Z,7.06
2019-03-11T19:03:11.874Z,7.09
2019-03-11T19:05:41.356Z,7.07
2019-03-11T19:08:10.863Z,6.99
2019-03-11T19:10:40.450Z,7.04
2019-03-11T19:13:10.174Z,6.89
2019-03-11T19:15:39.682Z,6.96
2019-03-11T19:18:09.223Z,6.87
2019-03-11T19:20:38.858Z,6.96
2019-03-11T19:23:08.435Z,6.91
2019-03-11T19:25:38.053Z,6.95
2019-03-11T19:28:07.712Z,6.92
2019-03-11T19:30:37.412Z,6.97
2019-03-11T19:33:06.998Z,6.87
2019-03-11T19:35:36.563Z,6.87
2019-03-11T19:38:06.157Z,6.83
2019-03-11T19:40:35.697Z,6.84
2019-03-11T19:43:05.310Z,6.90
2019-03-11T19:45:34.979Z,6.84
2019-03-11T19:48:04.654Z,6.85
2019-03-11T19:50:34.155Z,6.76
2019-03-11T19:53:03.821Z,6.77
2019-03-11T19:55:33.445Z,6.84
2019-03-11T19:58:03.103Z,6.76
2019-03-11T20:00:32.655Z,6.78
2019-03-11T20:03:02.402Z,6.75
2019-03-11T20:05:33.976Z,6.76
2019-03-11T20:08:03.683Z,6.68
2019-03-11T20:10:33.585Z,6.62
2019-03-11T20:13:03.287Z,6.73
2019-03-11T20:15:32.929Z,6.61
2019-03-11T20:18:02.648Z,6.62
2019-03-11T20:20:32.282Z,6.66
2019-03-11T20:23:01.932Z,6.50
2019-03-11T20:25:40.612Z,6.49
2019-03-11T20:28:10.230Z,6.41
2019-03-11T20:30:39.791Z,6.49
2019-03-11T20:33:09.408Z,6.51
2019-03-11T20:35:39.013Z,6.47
2019-03-11T20:38:08.619Z,6.51
2019-03-11T20:40:38.147Z,6.41
2019-03-11T20:43:07.662Z,6.51
2019-03-11T20:45:37.410Z,6.44
2019-03-11T20:48:06.985Z,6.50
2019-03-11T20:50:42.004Z,6.53
2019-03-11T20:53:07.935Z,6.59
2019-03-11T20:55:37.496Z,6.60
2019-03-11T20:58:07.082Z,6.34
2019-03-11T21:00:36.840Z,6.32
2019-03-11T21:03:06.539Z,6.18
2019-03-11T21:05:48.872Z,6.01
2019-03-11T21:08:18.410Z,5.86
2019-03-11T21:10:47.900Z,5.85
2019-03-11T21:13:17.626Z,5.81
2019-03-11T21:15:47.149Z,5.75
2019-03-11T21:18:16.669Z,5.48
2019-03-11T21:20:46.304Z,5.39
2019-03-11T21:23:15.935Z,5.41
2019-03-11T21:25:45.492Z,5.38
2019-03-11T21:28:15.203Z,5.37
2019-03-11T21:30:44.870Z,5.26
2019-03-11T21:33:14.591Z,5.14
2019-03-11T21:35:44.437Z,5.23
2019-03-11T21:38:14.133Z,5.00
2019-03-11T21:40:45.658Z,4.96
2019-03-11T21:43:15.260Z,5.01
2019-03-11T21:45:44.763Z,4.79
2019-03-11T21:48:14.299Z,4.48
2019-03-11T21:50:44.036Z,4.47
2019-03-11T21:53:13.506Z,4.42
2019-03-11T21:55:43.086Z,4.26
2019-03-11T21:58:13.799Z,4.11
2019-03-11T22:00:43.514Z,4.18
2019-03-11T22:03:13.060Z,4.38
2019-03-11T22:05:42.670Z,4.42
2019-03-11T22:08:12.195Z,4.42
2019-03-11T22:10:41.670Z,4.11
2019-03-11T22:13:11.315Z,4.16
2019-03-11T22:15:40.799Z,4.02
2019-03-11T22:18:10.351Z,4.09
2019-03-11T22:20:39.867Z,3.94
2019-03-11T22:23:09.421Z,3.85
2019-03-11T22:25:38.989Z,3.87
2019-03-11T22:28:08.529Z,3.73
2019-03-11T22:30:38.045Z,3.91
2019-03-11T22:33:07.533Z,3.72
2019-03-11T22:35:37.047Z,3.56
2019-03-11T22:38:06.552Z,3.47
2019-03-11T22:40:36.044Z,3.42
2019-03-11T22:43:05.617Z,3.47
2019-03-11T22:45:35.116Z,3.36
2019-03-11T22:48:04.701Z,3.38
2019-03-11T22:50:34.253Z,3.54
2019-03-11T22:53:03.740Z,3.39
2019-03-11T22:55:33.227Z,3.27
2019-03-11T22:58:02.773Z,3.19
2019-03-11T23:00:59.465Z,3.12
2019-03-11T23:03:29.375Z,2.93
2019-03-11T23:05:58.940Z,2.76
2019-03-11T23:08:28.545Z,2.64
2019-03-11T23:10:58.097Z,2.55
2019-03-11T23:13:27.739Z,2.49
2019-03-11T23:15:57.321Z,2.56
2019-03-11T23:18:26.880Z,2.68
2019-03-11T23:20:56.378Z,2.65
2019-03-11T23:23:25.909Z,2.75
2019-03-11T23:25:55.420Z,2.77
2019-03-11T23:28:24.932Z,2.82
2019-03-11T23:30:54.415Z,2.77
2019-03-11T23:33:23.916Z,2.74
2019-03-11T23:35:53.428Z,2.76
2019-03-11T23:38:22.990Z,2.75
2019-03-11T23:40:52.510Z,2.76
2019-03-11T23:43:22.022Z,2.75
2019-03-11T23:45:51.597Z,2.64
2019-03-11T23:48:21.126Z,2.74
2019-03-11T23:50:50.678Z,2.71
2019-03-11T23:53:20.145Z,2.54
2019-03-11T23:55:49.692Z,2.45
2019-03-11T23:58:19.167Z,2.41
